Time;durP1;ratioP1;P1;durP2;ratioP2;P2;SDS_P1;SDS_P2;PMS_P1;PMS_P2;Temp;Humidity;BMP_temperature;BMP_pressure;BME280_temperature;BME280_humidity;BME280_pressure;Samples;Min_cycle;Max_cycle;Signal;HPM_P1;HPM_P2
2022/06/02 00:01:29;;;;;;;5.97;1.65;;;25.20;99.90;;;;;;4943859;28;20141;-54
2022/06/02 00:04:23;;;;;;;6.93;2.35;;;25.20;99.90;;;;;;4971275;28;20023;-54
2022/06/02 00:07:03;;;;;;;4.55;2.40;;;25.20;99.90;;;;;;4972576;28;20468;-55
2022/06/02 00:09:46;;;;;;;5.93;2.13;;;25.20;99.90;;;;;;4972326;28;20022;-53
2022/06/02 00:12:24;;;;;;;6.78;2.38;;;25.10;99.90;;;;;;4972496;28;20027;-52
2022/06/02 00:14:56;;;;;;;4.00;1.33;;;25.10;99.90;;;;;;4972406;28;20038;-53
2022/06/02 00:17:27;;;;;;;4.43;1.50;;;25.10;99.90;;;;;;4972474;28;20205;-54
2022/06/02 00:20:08;;;;;;;4.80;1.95;;;25.10;99.90;;;;;;4972378;28;20034;-55
2022/06/02 00:23:11;;;;;;;5.22;1.55;;;25.10;99.90;;;;;;4972566;28;20034;-55
2022/06/02 00:26:04;;;;;;;6.18;3.42;;;25.20;99.90;;;;;;4972580;28;20146;-55
2022/06/02 00:28:48;;;;;;;2.55;1.48;;;25.20;99.90;;;;;;4972473;28;20023;-55
2022/06/02 00:31:36;;;;;;;2.95;1.08;;;25.20;99.90;;;;;;4972341;28;20102;-54
2022/06/02 00:34:22;;;;;;;6.25;2.42;;;25.20;99.90;;;;;;4972182;28;20027;-53
2022/06/02 00:37:41;;;;;;;5.20;1.40;;;25.10;99.90;;;;;;4972327;28;20031;-54
2022/06/02 00:40:09;;;;;;;4.47;1.63;;;25.10;99.90;;;;;;4893811;29;20029;-55
2022/06/02 00:42:48;;;;;;;5.63;1.30;;;25.10;99.90;;;;;;4893797;29;20036;-56
2022/06/02 00:45:16;;;;;;;3.42;1.52;;;25.00;99.90;;;;;;4938319;28;20039;-55
2022/06/02 00:47:49;;;;;;;4.57;1.73;;;25.00;99.90;;;;;;4972674;28;20026;-54
2022/06/02 00:50:53;;;;;;;5.15;1.30;;;25.00;99.90;;;;;;4975834;28;20023;-55
2022/06/02 00:57:31;;;;;;;4.05;1.52;;;24.90;99.90;;;;;;4946010;28;20049;-54
2022/06/02 01:00:35;;;;;;;5.20;1.63;;;24.80;99.90;;;;;;4998675;23;20129;-63
2022/06/02 01:03:16;;;;;;;3.92;1.73;;;24.80;99.90;;;;;;5014643;28;20028;-63
2022/06/02 01:06:24;;;;;;;3.35;1.40;;;24.80;99.90;;;;;;5013220;28;20521;-62
2022/06/02 01:09:07;;;;;;;2.90;1.63;;;24.80;99.90;;;;;;5013327;28;20081;-63
2022/06/02 01:11:57;;;;;;;7.95;1.95;;;24.70;99.90;;;;;;5014562;28;20054;-63
2022/06/02 01:14:23;;;;;;;4.45;1.67;;;24.70;99.90;;;;;;5014304;28;20038;-62
2022/06/02 01:17:10;;;;;;;5.70;1.70;;;24.70;99.90;;;;;;5014380;28;20026;-62
2022/06/02 01:19:59;;;;;;;6.25;2.40;;;24.70;99.90;;;;;;5014308;28;20032;-62
2022/06/02 01:23:02;;;;;;;6.88;1.92;;;24.60;99.90;;;;;;5014188;28;20076;-62
2022/06/02 01:25:41;;;;;;;8.68;2.65;;;24.60;99.90;;;;;;5014085;28;20029;-61
2022/06/02 01:28:30;;;;;;;6.70;2.20;;;24.60;99.90;;;;;;5014271;28;20458;-61
2022/06/02 01:31:42;;;;;;;4.82;1.63;;;24.70;99.90;;;;;;5013916;28;20036;-63
2022/06/02 01:34:32;;;;;;;5.03;1.80;;;24.60;99.90;;;;;;5010676;28;20038;-64
2022/06/02 01:37:11;;;;;;;4.28;1.77;;;24.70;99.90;;;;;;5013882;28;20454;-63
2022/06/02 01:40:08;;;;;;;4.10;1.55;;;24.70;99.90;;;;;;5012619;28;20454;-62
2022/06/02 01:42:52;;;;;;;4.93;1.10;;;24.70;99.90;;;;;;5013971;28;20128;-61
2022/06/02 01:45:27;;;;;;;4.65;1.10;;;24.70;99.90;;;;;;5013774;28;20462;-62
2022/06/02 01:48:29;;;;;;;2.58;1.45;;;24.70;99.90;;;;;;5013831;28;20030;-62
2022/06/02 01:51:17;;;;;;;5.82;1.20;;;24.80;99.90;;;;;;5012320;28;20125;-62
2022/06/02 01:54:00;;;;;;;3.55;1.10;;;24.90;99.90;;;;;;5012455;28;20022;-62
2022/06/02 01:56:35;;;;;;;2.53;0.93;;;24.90;99.90;;;;;;5013493;28;20030;-62
2022/06/02 01:59:30;;;;;;;3.03;1.00;;;25.00;99.90;;;;;;5012726;28;20029;-62
2022/06/02 02:02:15;;;;;;;3.03;0.93;;;25.10;99.90;;;;;;4943115;28;20051;-62
2022/06/02 02:05:04;;;;;;;5.50;1.13;;;25.10;99.90;;;;;;5013726;28;20437;-63
2022/06/02 02:07:50;;;;;;;4.70;1.65;;;25.00;99.90;;;;;;5000069;28;20076;-62
2022/06/02 02:10:55;;;;;;;7.95;1.40;;;25.00;99.90;;;;;;5013522;28;20496;-63
2022/06/02 02:13:42;;;;;;;5.38;1.08;;;24.90;99.90;;;;;;4983533;28;20037;-62
2022/06/02 02:16:20;;;;;;;;;;;24.70;99.90;;;;;;5013636;28;20029;-63
2022/06/02 02:19:27;;;;;;;7.45;1.13;;;24.60;99.90;;;;;;5013265;28;19916;-62
2022/06/02 02:21:59;;;;;;;;;;;24.40;99.90;;;;;;4933779;29;20040;-62
2022/06/02 02:24:34;;;;;;;6.13;0.90;;;24.40;99.90;;;;;;4933395;29;20343;-62
2022/06/02 02:27:24;;;;;;;4.72;1.08;;;24.30;99.90;;;;;;4980159;28;20034;-62
2022/06/02 02:30:08;;;;;;;3.70;1.23;;;24.30;99.90;;;;;;5012504;28;20036;-62
2022/06/02 02:32:56;;;;;;;7.32;1.42;;;24.30;99.90;;;;;;5012944;28;20128;-62
2022/06/02 02:35:39;;;;;;;4.93;1.20;;;24.30;99.90;;;;;;5012860;28;20038;-63
2022/06/02 02:38:14;;;;;;;7.65;1.40;;;24.30;99.90;;;;;;5013021;28;20244;-63
2022/06/02 02:41:01;;;;;;;3.25;1.40;;;24.30;99.90;;;;;;5013107;28;20999;-63
2022/06/02 02:43:41;;;;;;;2.97;1.23;;;24.30;99.90;;;;;;5012921;28;20032;-63
2022/06/02 02:46:30;;;;;;;5.97;1.00;;;24.30;99.90;;;;;;5012857;28;20541;-62
2022/06/02 02:49:20;;;;;;;8.18;1.42;;;24.30;99.90;;;;;;5012577;28;20539;-62
2022/06/02 02:51:53;;;;;;;2.63;1.30;;;24.20;99.90;;;;;;5012736;28;20026;-62
2022/06/02 02:54:45;;;;;;;4.75;1.48;;;24.20;99.90;;;;;;5012546;28;20034;-62
2022/06/02 02:57:24;;;;;;;5.38;1.35;;;24.10;99.90;;;;;;5012604;28;20072;-62
2022/06/02 03:00:21;;;;;;;4.60;1.27;;;24.10;99.90;;;;;;5020292;22;20495;-54
2022/06/02 03:03:04;;;;;;;3.92;1.50;;;24.10;99.90;;;;;;4991794;28;20038;-55
2022/06/02 03:06:12;;;;;;;2.72;1.60;;;24.10;99.90;;;;;;4993002;28;20041;-55
2022/06/02 03:09:13;;;;;;;5.38;1.63;;;24.10;99.90;;;;;;4992741;28;20027;-55
2022/06/02 03:11:51;;;;;;;3.58;1.10;;;24.10;99.90;;;;;;4988424;28;20102;-55
2022/06/02 03:14:26;;;;;;;7.40;1.60;;;24.00;99.90;;;;;;4992546;28;20091;-54
2022/06/02 03:16:58;;;;;;;3.05;1.17;;;24.00;99.90;;;;;;4992642;28;20387;-55
2022/06/02 03:19:40;;;;;;;4.65;1.20;;;24.10;99.90;;;;;;4992510;28;20027;-54
2022/06/02 03:22:35;;;;;;;3.08;1.10;;;24.10;99.90;;;;;;4992460;28;20026;-55
2022/06/02 03:25:13;;;;;;;3.25;1.10;;;24.10;99.90;;;;;;4955752;28;20034;-55
2022/06/02 03:28:16;;;;;;;5.05;1.27;;;24.10;99.90;;;;;;4991135;28;20475;-55
2022/06/02 03:30:54;;;;;;;3.13;0.95;;;24.10;99.90;;;;;;4991121;28;20030;-55
2022/06/02 03:33:20;;;;;;;6.13;1.52;;;24.10;99.90;;;;;;4992297;28;20026;-55
2022/06/02 03:36:04;;;;;;;5.43;1.10;;;24.10;99.90;;;;;;4992340;28;20043;-55
2022/06/02 03:38:51;;;;;;;3.80;1.10;;;24.10;99.90;;;;;;4992145;28;20065;-55
2022/06/02 03:41:25;;;;;;;3.50;1.30;;;24.10;99.90;;;;;;4992321;28;20022;-55
2022/06/02 03:44:20;;;;;;;2.70;1.23;;;24.10;99.90;;;;;;4992054;28;20030;-54
2022/06/02 03:46:52;;;;;;;6.82;1.20;;;24.20;99.90;;;;;;4952226;28;20026;-55
2022/06/02 03:49:38;;;;;;;7.20;1.88;;;24.20;99.90;;;;;;4992233;28;20045;-54
2022/06/02 03:52:16;;;;;;;6.60;1.70;;;24.20;99.90;;;;;;4971229;28;20031;-55
2022/06/02 03:55:00;;;;;;;3.13;1.30;;;24.20;99.90;;;;;;4992023;28;20380;-54
2022/06/02 03:57:34;;;;;;;2.65;1.30;;;24.10;99.90;;;;;;4991965;28;20037;-56
2022/06/02 04:00:03;;;;;;;4.53;1.23;;;24.10;99.90;;;;;;4992436;28;20042;-55
2022/06/02 04:02:39;;;;;;;5.82;1.15;;;24.10;99.90;;;;;;4983419;28;20153;-54
2022/06/02 04:05:43;;;;;;;7.05;1.30;;;24.10;99.90;;;;;;4990812;28;20030;-53
2022/06/02 04:08:46;;;;;;;6.00;1.60;;;24.00;99.90;;;;;;4991975;28;20445;-54
2022/06/02 04:13:37;;;;;;;3.58;1.10;;;24.00;99.90;;;;;;4990552;28;20092;-54
2022/06/02 04:14:28;;;;;;;4.07;1.40;;;24.00;99.90;;;;;;4991383;28;20030;-53
2022/06/02 04:16:57;;;;;;;5.13;1.20;;;23.90;99.90;;;;;;4991439;28;20076;-54
2022/06/02 04:22:34;;;;;;;3.45;1.63;;;23.90;99.90;;;;;;4990961;28;20100;-55
2022/06/02 04:25:19;;;;;;;5.38;1.98;;;23.80;99.90;;;;;;4994763;28;20072;-54
2022/06/02 04:27:57;;;;;;;5.88;1.70;;;23.80;99.90;;;;;;4995598;28;20030;-55
2022/06/02 04:30:57;;;;;;;6.07;1.50;;;23.80;99.90;;;;;;4995568;28;20046;-54
2022/06/02 04:33:46;;;;;;;7.38;1.13;;;23.80;99.90;;;;;;4985006;28;20065;-54
2022/06/02 04:36:33;;;;;;;4.03;1.77;;;23.80;99.90;;;;;;4995542;28;20034;-54
2022/06/02 04:39:16;;;;;;;4.45;1.30;;;23.70;99.90;;;;;;4995544;28;20034;-54
2022/06/02 04:42:13;;;;;;;2.50;1.30;;;23.70;99.90;;;;;;4995447;28;20018;-54
2022/06/02 04:44:50;;;;;;;4.55;2.15;;;23.70;99.90;;;;;;4995060;28;20027;-53
2022/06/02 04:47:54;;;;;;;4.93;3.13;;;23.70;99.90;;;;;;4995410;28;20026;-53
2022/06/02 04:50:38;;;;;;;4.22;1.63;;;23.80;99.90;;;;;;4915985;29;20028;-52
2022/06/02 04:53:04;;;;;;;4.53;2.95;;;23.80;99.90;;;;;;4916023;29;20517;-53
2022/06/02 04:55:30;;;;;;;3.58;2.08;;;23.80;99.90;;;;;;4962723;28;20134;-53
2022/06/02 04:58:04;;;;;;;4.78;2.45;;;23.80;99.90;;;;;;4995003;28;20018;-53
2022/06/02 05:00:42;;;;;;;5.65;1.98;;;23.80;99.90;;;;;;4994928;28;20046;-53
2022/06/02 05:03:27;;;;;;;7.07;1.80;;;23.80;99.90;;;;;;4994972;28;20122;-54
2022/06/02 05:06:18;;;;;;;7.95;2.03;;;23.80;99.90;;;;;;4993591;28;20026;-53
2022/06/02 05:08:52;;;;;;;5.78;1.73;;;23.80;99.90;;;;;;4994872;28;20026;-53
2022/06/02 05:11:47;;;;;;;8.90;2.45;;;23.80;99.90;;;;;;4994955;28;20036;-53
2022/06/02 05:14:31;;;;;;;6.82;1.98;;;23.80;99.90;;;;;;4977815;28;20528;-52
2022/06/02 05:17:09;;;;;;;11.32;2.25;;;23.80;99.90;;;;;;4994727;28;20026;-53
2022/06/02 05:20:00;;;;;;;11.68;2.35;;;23.80;99.90;;;;;;4994799;28;20375;-53
2022/06/02 05:22:45;;;;;;;12.48;2.58;;;23.80;99.90;;;;;;4994689;28;20390;-53
2022/06/02 05:25:40;;;;;;;8.38;2.55;;;23.80;99.90;;;;;;4994585;28;20034;-53
2022/06/02 05:28:25;;;;;;;11.77;3.35;;;23.70;99.90;;;;;;4994532;28;20033;-53
2022/06/02 05:30:56;;;;;;;9.07;2.83;;;23.70;99.90;;;;;;4993383;28;20110;-53
2022/06/02 05:33:48;;;;;;;6.50;2.22;;;23.70;99.90;;;;;;4994356;28;20082;-53
2022/06/02 05:36:22;;;;;;;10.20;1.90;;;23.70;99.90;;;;;;4994368;28;20160;-53
2022/06/02 05:39:06;;;;;;;14.60;4.07;;;23.80;99.90;;;;;;4994410;28;20121;-53
2022/06/02 05:42:09;;;;;;;11.73;4.93;;;23.70;99.90;;;;;;4994312;28;20026;-54
2022/06/02 05:44:41;;;;;;;9.43;5.82;;;23.70;99.90;;;;;;4957151;28;20031;-53
2022/06/02 05:47:37;;;;;;;19.50;4.38;;;23.60;99.90;;;;;;4994305;28;20183;-53
2022/06/02 05:50:32;;;;;;;10.70;4.50;;;23.60;99.90;;;;;;4957741;28;20041;-55
2022/06/02 05:53:03;;;;;;;10.52;3.83;;;23.60;99.90;;;;;;4994115;28;20050;-54
2022/06/02 05:56:03;;;;;;;7.38;2.80;;;23.60;99.90;;;;;;4993982;28;20035;-53
2022/06/02 05:58:40;;;;;;;17.23;5.13;;;23.60;99.90;;;;;;4993967;28;20022;-53
2022/06/02 06:01:08;;;;;;;;;;;23.60;99.90;;;;;;4994333;28;20058;-53
2022/06/02 06:03:34;;;;;;;12.80;3.65;;;23.60;99.90;;;;;;4993821;28;19906;-53
2022/06/02 06:06:18;;;;;;;12.73;3.47;;;23.60;99.90;;;;;;4993856;28;20089;-53
2022/06/02 06:09:02;;;;;;;16.80;3.80;;;23.60;99.90;;;;;;4993929;28;20029;-52
2022/06/02 06:12:14;;;;;;;6.95;2.67;;;23.50;99.90;;;;;;4993736;28;20389;-54
2022/06/02 06:15:00;;;;;;;11.20;2.90;;;23.50;99.90;;;;;;4993714;28;20118;-53
2022/06/02 06:17:37;;;;;;;12.75;2.97;;;23.50;99.90;;;;;;4993929;28;20505;-53
2022/06/02 06:20:07;;;;;;;;;;;23.50;99.90;;;;;;4994098;28;20064;-52
2022/06/02 06:23:10;;;;;;;9.18;2.25;;;23.50;99.90;;;;;;4993492;28;20385;-54
2022/06/02 06:25:41;;;;;;;12.40;2.80;;;23.50;99.90;;;;;;4993517;28;20057;-53
2022/06/02 06:28:14;;;;;;;7.20;1.88;;;23.50;99.90;;;;;;4993650;28;20049;-54
2022/06/02 06:31:10;;;;;;;13.93;2.70;;;23.50;99.90;;;;;;4993383;28;20018;-53
2022/06/02 06:33:42;;;;;;;9.77;2.72;;;23.50;99.90;;;;;;4993258;28;20069;-54
2022/06/02 06:36:31;;;;;;;22.60;4.10;;;23.50;99.90;;;;;;4993585;28;20038;-53
2022/06/02 06:39:29;;;;;;;13.95;2.95;;;23.60;99.90;;;;;;4993431;28;20022;-53
2022/06/02 06:42:04;;;;;;;16.80;2.78;;;23.60;99.90;;;;;;4982913;28;20038;-53
2022/06/02 06:45:01;;;;;;;9.57;2.17;;;23.70;99.90;;;;;;4993017;28;20030;-53
2022/06/02 06:47:47;;;;;;;7.40;2.25;;;23.80;99.90;;;;;;4992949;28;20482;-53
2022/06/02 06:50:36;;;;;;;13.25;2.78;;;23.80;99.90;;;;;;4992924;28;20482;-53
2022/06/02 06:53:20;;;;;;;6.60;2.25;;;23.90;99.90;;;;;;4992912;28;20105;-53
2022/06/02 06:55:55;;;;;;;13.75;2.63;;;24.00;99.90;;;;;;4992809;28;20038;-54
2022/06/02 06:58:34;;;;;;;10.65;2.28;;;24.00;99.90;;;;;;4992819;28;20074;-53
2022/06/02 07:01:06;;;;;;;10.68;2.42;;;24.00;99.90;;;;;;4992627;28;20387;-53
2022/06/02 07:04:07;;;;;;;15.00;6.47;;;24.10;99.90;;;;;;4992628;28;20026;-54
2022/06/02 07:07:11;;;;;;;11.32;2.53;;;24.10;99.90;;;;;;4986006;28;20042;-53
2022/06/02 07:09:45;;;;;;;11.98;3.35;;;24.10;99.90;;;;;;4992561;28;20390;-53
2022/06/02 07:15:26;;;;;;;8.73;2.80;;;24.30;99.90;;;;;;4992670;28;20050;-54
2022/06/02 07:18:07;;;;;;;5.47;2.55;;;24.30;99.90;;;;;;4992615;28;20108;-54
2022/06/02 07:20:54;;;;;;;16.83;3.83;;;24.50;99.90;;;;;;4992556;28;20026;-54
2022/06/02 07:23:26;;;;;;;16.40;7.25;;;24.50;99.90;;;;;;4992375;28;20501;-53
2022/06/02 07:26:01;;;;;;;11.43;4.70;;;24.60;99.90;;;;;;4992360;28;20482;-54
2022/06/02 07:28:55;;;;;;;6.20;2.35;;;24.70;99.90;;;;;;4992486;28;20049;-54
2022/06/02 07:31:32;;;;;;;9.15;1.88;;;24.80;99.90;;;;;;4992436;28;20448;-53
2022/06/02 07:34:13;;;;;;;7.70;2.20;;;24.90;99.90;;;;;;4991127;28;20377;-53
2022/06/02 07:36:51;;;;;;;10.63;2.50;;;24.90;99.90;;;;;;4992243;28;20125;-54
2022/06/02 07:39:32;;;;;;;9.40;2.45;;;25.00;99.90;;;;;;4992114;28;20489;-54
2022/06/02 07:42:12;;;;;;;11.63;2.70;;;25.00;99.90;;;;;;4992322;28;20034;-54
2022/06/02 07:45:06;;;;;;;9.57;2.58;;;25.00;99.90;;;;;;4992215;28;20030;-54
2022/06/02 07:47:36;;;;;;;12.75;2.83;;;24.80;99.90;;;;;;4992187;28;20027;-54
2022/06/02 07:50:32;;;;;;;12.20;2.80;;;24.70;99.90;;;;;;4992257;28;20023;-54
2022/06/02 07:53:10;;;;;;;15.63;3.80;;;24.50;99.90;;;;;;4985605;28;20128;-53
2022/06/02 07:55:49;;;;;;;9.63;2.70;;;24.30;99.90;;;;;;4991793;28;20058;-54
2022/06/02 07:58:36;;;;;;;10.75;2.40;;;24.20;99.90;;;;;;4992060;28;20015;-54
2022/06/02 08:01:17;;;;;;;9.93;2.30;;;24.00;99.90;;;;;;4991773;28;20451;-54
2022/06/02 08:03:55;;;;;;;9.55;2.58;;;24.00;99.90;;;;;;4991699;28;20019;-55
2022/06/02 08:06:30;;;;;;;12.70;5.25;;;24.00;99.90;;;;;;4991805;28;20475;-53
2022/06/02 08:09:17;;;;;;;11.57;2.70;;;24.00;99.90;;;;;;4991603;28;20126;-52
2022/06/02 08:11:43;;;;;;;11.38;2.80;;;24.00;99.90;;;;;;4991629;28;20026;-53
2022/06/02 08:14:45;;;;;;;4.80;2.05;;;24.10;99.90;;;;;;4991536;28;20517;-53
2022/06/02 08:17:16;;;;;;;10.75;2.22;;;24.20;99.90;;;;;;4991682;28;20446;-53
2022/06/02 08:20:01;;;;;;;17.63;2.78;;;24.30;99.90;;;;;;4991564;28;20026;-53
2022/06/02 08:22:34;;;;;;;4.40;1.55;;;24.30;99.90;;;;;;4991619;28;20077;-53
2022/06/02 08:25:10;;;;;;;7.43;1.90;;;24.40;99.90;;;;;;4991857;28;20026;-52
2022/06/02 08:27:36;;;;;;;7.05;2.55;;;24.40;99.90;;;;;;4991583;28;20116;-54
2022/06/02 08:30:01;;;;;;;9.20;2.00;;;24.40;99.90;;;;;;4991854;28;20062;-54
2022/06/02 08:32:45;;;;;;;7.95;2.38;;;24.50;99.90;;;;;;4991640;28;20022;-55
2022/06/02 08:35:26;;;;;;;12.38;2.60;;;24.50;99.90;;;;;;4991551;28;20073;-54
2022/06/02 08:38:22;;;;;;;8.23;2.03;;;24.50;99.90;;;;;;4991509;28;20037;-54
2022/06/02 08:41:30;;;;;;;11.73;3.58;;;24.50;99.90;;;;;;4991494;28;20026;-55
2022/06/02 08:44:11;;;;;;;9.65;2.40;;;24.60;99.90;;;;;;4991332;28;20470;-54
2022/06/02 08:46:58;;;;;;;10.70;2.33;;;24.70;99.90;;;;;;4991416;28;20037;-54
2022/06/02 08:49:45;;;;;;;6.30;1.98;;;24.70;99.90;;;;;;4991608;28;20382;-53
2022/06/02 08:52:41;;;;;;;10.15;2.30;;;24.70;99.90;;;;;;4991403;28;20050;-54
2022/06/02 08:55:46;;;;;;;7.32;2.28;;;24.70;99.90;;;;;;4991284;28;20054;-53
2022/06/02 08:58:57;;;;;;;8.07;1.88;;;24.70;99.90;;;;;;4987878;28;20038;-55
2022/06/02 09:01:50;;;;;;;6.88;2.13;;;24.70;99.90;;;;;;4991086;28;20113;-54
2022/06/02 09:04:45;;;;;;;8.20;2.75;;;24.70;99.90;;;;;;4991175;28;20037;-54
2022/06/02 09:07:32;;;;;;;9.30;2.55;;;24.70;99.90;;;;;;4962398;28;20027;-53
2022/06/02 09:09:57;;;;;;;;;;;24.70;99.90;;;;;;4994412;28;20034;-54
2022/06/02 09:12:26;;;;;;;10.20;1.70;;;24.70;99.90;;;;;;4994830;28;19929;-54
2022/06/02 09:15:29;;;;;;;13.43;2.22;;;24.80;99.90;;;;;;4994773;28;20034;-53
2022/06/02 09:18:12;;;;;;;7.00;1.75;;;24.80;99.90;;;;;;4994677;28;20340;-54
2022/06/02 09:21:19;;;;;;;5.57;1.70;;;24.90;99.90;;;;;;4994656;28;20030;-54
2022/06/02 09:23:58;;;;;;;10.50;2.28;;;25.00;99.90;;;;;;4951174;28;20038;-55
2022/06/02 09:26:37;;;;;;;6.85;1.90;;;25.10;99.90;;;;;;4994613;28;20049;-53
2022/06/02 09:29:36;;;;;;;5.70;1.95;;;25.20;99.90;;;;;;4994674;28;20030;-53
2022/06/02 09:32:46;;;;;;;8.85;2.05;;;25.30;99.90;;;;;;4978322;28;20062;-53
2022/06/02 09:35:22;;;;;;;9.32;2.08;;;25.30;99.90;;;;;;4914786;29;20039;-53
2022/06/02 09:38:16;;;;;;;11.35;2.25;;;25.30;99.90;;;;;;4988797;28;20073;-53
2022/06/02 09:41:20;;;;;;;9.23;2.20;;;25.30;99.90;;;;;;4993030;28;20038;-54
2022/06/02 09:44:01;;;;;;;7.20;2.55;;;25.40;99.90;;;;;;4980091;28;20042;-54
2022/06/02 09:46:30;;;;;;;12.15;3.08;;;25.40;99.90;;;;;;4994171;28;20073;-53
2022/06/02 09:49:30;;;;;;;7.03;3.08;;;25.50;99.90;;;;;;4994225;28;20027;-53
2022/06/02 09:52:11;;;;;;;6.00;2.17;;;25.50;99.90;;;;;;4994116;28;20061;-53
2022/06/02 09:55:05;;;;;;;5.63;2.53;;;25.50;99.90;;;;;;4994142;28;20041;-54
2022/06/02 10:00:31;;;;;;;;;;;25.60;99.90;;;;;;4994236;28;20096;-53
2022/06/02 10:03:42;;;;;;;12.50;3.90;;;25.70;99.90;;;;;;4993871;28;19932;-54
2022/06/02 10:06:42;;;;;;;4.05;2.05;;;25.70;99.90;;;;;;4951196;28;20255;-53
2022/06/02 10:09:30;;;;;;;7.78;2.60;;;25.70;99.90;;;;;;4993894;28;20030;-54
2022/06/02 10:14:58;;;;;;;13.50;2.58;;;25.70;99.90;;;;;;4993688;28;20521;-53
2022/06/02 10:17:44;;;;;;;6.20;1.77;;;25.70;99.90;;;;;;4993751;28;20066;-58
2022/06/02 10:20:48;;;;;;;9.55;2.25;;;25.80;99.90;;;;;;4992736;28;20112;-54
2022/06/02 10:23:18;;;;;;;4.28;1.75;;;25.80;99.90;;;;;;4989787;28;20045;-54
2022/06/02 10:26:05;;;;;;;5.28;1.67;;;25.90;99.90;;;;;;4993501;28;20022;-54
2022/06/02 10:29:06;;;;;;;5.97;2.88;;;25.90;99.90;;;;;;4991928;28;20448;-54
2022/06/02 10:32:15;;;;;;;14.77;7.07;;;25.90;99.90;;;;;;4993328;28;20390;-53
2022/06/02 10:34:47;;;;;;;11.95;3.60;;;25.90;99.90;;;;;;4993214;28;20107;-53
2022/06/02 10:37:35;;;;;;;12.80;3.15;;;25.80;99.90;;;;;;4993246;28;20050;-53
2022/06/02 10:40:37;;;;;;;9.05;1.88;;;25.70;99.90;;;;;;4993274;28;20037;-53
2022/06/02 10:43:03;;;;;;;5.38;1.85;;;25.80;99.90;;;;;;4993237;28;20106;-53
2022/06/02 10:46:08;;;;;;;10.63;2.20;;;25.70;99.90;;;;;;4993069;28;20101;-54
2022/06/02 10:48:46;;;;;;;6.57;2.05;;;25.70;99.90;;;;;;4993000;28;20026;-53
2022/06/02 10:51:17;;;;;;;9.57;3.20;;;25.70;99.90;;;;;;4992815;28;20023;-53
2022/06/02 10:53:56;;;;;;;9.05;3.25;;;25.80;99.90;;;;;;4992897;28;20041;-54
2022/06/02 10:56:40;;;;;;;10.48;2.33;;;25.80;99.90;;;;;;4992793;28;20034;-53
2022/06/02 10:59:34;;;;;;;15.32;3.28;;;25.80;99.90;;;;;;4992911;28;20046;-53
2022/06/02 11:02:49;;;;;;;8.95;3.08;;;25.70;99.90;;;;;;4992747;28;20057;-53
2022/06/02 11:05:33;;;;;;;6.53;2.28;;;25.70;99.90;;;;;;4986325;28;20066;-53
2022/06/02 11:08:36;;;;;;;12.02;2.80;;;25.70;99.90;;;;;;4992824;28;20030;-53
2022/06/02 11:11:36;;;;;;;12.55;2.08;;;25.70;99.90;;;;;;4992684;28;20037;-53
2022/06/02 11:14:02;;;;;;;12.95;3.03;;;25.70;99.90;;;;;;4992451;28;20477;-54
2022/06/02 11:16:49;;;;;;;5.93;2.35;;;25.80;99.90;;;;;;4992470;28;20474;-54
2022/06/02 11:19:26;;;;;;;;;;;25.80;99.90;;;;;;4992863;28;20084;-54
2022/06/02 11:22:14;;;;;;;9.27;2.58;;;25.80;99.90;;;;;;4992389;28;19912;-54
2022/06/02 11:24:58;;;;;;;9.65;2.60;;;25.90;99.90;;;;;;4992402;28;20469;-54
2022/06/02 11:27:50;;;;;;;9.85;1.92;;;25.80;99.90;;;;;;4991332;28;20030;-54
2022/06/02 11:30:25;;;;;;;8.57;4.18;;;25.80;99.90;;;;;;4992239;28;20466;-54
2022/06/02 11:33:13;;;;;;;6.57;2.90;;;25.80;99.90;;;;;;4991947;28;20488;-54
2022/06/02 11:35:45;;;;;;;8.07;2.70;;;25.90;99.90;;;;;;4992365;28;20502;-54
2022/06/02 11:38:31;;;;;;;7.50;1.90;;;25.90;99.90;;;;;;4992697;28;20022;-54
2022/06/02 11:41:19;;;;;;;12.38;2.65;;;26.00;99.90;;;;;;4992102;28;20129;-54
2022/06/02 11:44:00;;;;;;;11.10;2.50;;;26.00;99.90;;;;;;4990577;28;20034;-53
2022/06/02 11:46:45;;;;;;;13.75;4.63;;;26.10;99.90;;;;;;4991907;28;20542;-53
2022/06/02 11:49:23;;;;;;;7.20;3.80;;;26.20;99.90;;;;;;4992172;28;20109;-52
2022/06/02 11:52:00;;;;;;;7.32;2.75;;;26.20;99.90;;;;;;4992101;28;20109;-53
2022/06/02 11:54:35;;;;;;;;;;;26.30;99.90;;;;;;4992396;28;20053;-53
2022/06/02 11:57:22;;;;;;;12.52;2.22;;;26.40;99.90;;;;;;4992027;28;20316;-54
2022/06/02 12:00:25;;;;;;;6.88;1.90;;;26.40;99.90;;;;;;4991682;28;20030;-53
2022/06/02 12:03:28;;;;;;;6.55;1.63;;;26.50;99.90;;;;;;4992016;28;20011;-54
2022/06/02 12:05:56;;;;;;;6.30;1.50;;;26.50;99.90;;;;;;4991997;28;20061;-53
2022/06/02 12:08:37;;;;;;;7.43;1.63;;;26.60;99.90;;;;;;4991770;28;20386;-53
2022/06/02 12:11:09;;;;;;;7.88;2.30;;;26.60;99.90;;;;;;4991966;28;20097;-54
2022/06/02 12:13:54;;;;;;;6.68;1.98;;;26.70;99.90;;;;;;4991776;28;20034;-54
2022/06/02 12:16:46;;;;;;;3.80;1.45;;;26.70;99.90;;;;;;4991786;28;20027;-53
2022/06/02 12:19:40;;;;;;;8.25;1.98;;;26.80;99.90;;;;;;4985193;28;20046;-53
2022/06/02 12:22:34;;;;;;;11.18;1.88;;;26.70;99.90;;;;;;4983608;28;20053;-53
2022/06/02 12:25:31;;;;;;;7.35;1.58;;;26.80;99.90;;;;;;4966241;28;20041;-53
2022/06/02 12:28:05;;;;;;;9.60;3.75;;;26.80;99.90;;;;;;4988785;28;20068;-54
2022/06/02 12:31:04;;;;;;;8.82;3.35;;;26.80;99.90;;;;;;4991114;28;20145;-52
2022/06/02 12:33:47;;;;;;;9.20;3.13;;;26.80;99.90;;;;;;4991687;28;20026;-53
2022/06/02 12:36:38;;;;;;;7.20;3.78;;;26.80;99.90;;;;;;4990527;28;20041;-53
2022/06/02 12:39:21;;;;;;;9.45;3.00;;;26.80;99.90;;;;;;4987921;28;20037;-53
2022/06/02 12:42:07;;;;;;;6.63;2.08;;;26.70;99.90;;;;;;4989968;28;20130;-52
2022/06/02 12:44:51;;;;;;;9.90;2.38;;;26.70;99.90;;;;;;4991369;28;20181;-54
2022/06/02 12:47:58;;;;;;;7.00;1.67;;;26.60;99.90;;;;;;4994864;28;20117;-53
2022/06/02 12:50:23;;;;;;;;;;;26.60;99.90;;;;;;4978221;28;20027;-53
2022/06/02 12:53:01;;;;;;;8.80;2.20;;;26.70;99.90;;;;;;4986078;28;20269;-53
2022/06/02 12:55:50;;;;;;;7.45;1.73;;;26.60;99.90;;;;;;4994875;28;20026;-54
2022/06/02 12:58:41;;;;;;;5.57;1.88;;;26.70;99.90;;;;;;4986969;28;20485;-55
2022/06/02 13:01:20;;;;;;;5.15;2.25;;;26.60;99.90;;;;;;4983461;28;20401;-53
2022/06/02 13:04:19;;;;;;;6.80;1.92;;;26.50;99.90;;;;;;4987473;28;20509;-53
2022/06/02 13:07:06;;;;;;;6.82;1.90;;;26.50;99.90;;;;;;4985462;28;20122;-53
2022/06/02 13:09:42;;;;;;;5.13;1.58;;;26.40;99.90;;;;;;4994705;28;20037;-53
2022/06/02 13:12:31;;;;;;;6.78;1.63;;;26.30;99.90;;;;;;4987997;28;20362;-51
2022/06/02 13:15:28;;;;;;;10.60;1.90;;;26.20;99.90;;;;;;4979821;28;20059;-51
2022/06/02 13:18:13;;;;;;;7.00;2.08;;;26.10;99.90;;;;;;4982544;28;20106;-52
2022/06/02 13:21:02;;;;;;;29.17;16.27;;;25.90;99.90;;;;;;4993995;28;20033;-53
2022/06/02 13:23:52;;;;;;;50.65;25.48;;;26.00;99.90;;;;;;4963844;28;20036;-52
2022/06/02 13:26:44;;;;;;;9.50;4.05;;;26.00;99.90;;;;;;4997667;28;20057;-52
2022/06/02 13:29:29;;;;;;;7.63;2.13;;;26.10;99.90;;;;;;4990955;28;20422;-52
2022/06/02 13:32:34;;;;;;;17.88;6.47;;;26.10;99.90;;;;;;4995182;28;20041;-50
2022/06/02 13:35:09;;;;;;;8.57;3.72;;;26.00;99.90;;;;;;4990354;28;20130;-51
2022/06/02 13:38:03;;;;;;;11.73;2.63;;;26.00;99.90;;;;;;5010086;28;20013;-51
2022/06/02 13:40:34;;;;;;;9.18;1.98;;;26.10;99.90;;;;;;4995127;28;20482;-51
2022/06/02 13:43:46;;;;;;;11.10;1.75;;;26.10;99.90;;;;;;4990953;28;20026;-52
2022/06/02 13:46:28;;;;;;;8.77;2.10;;;26.10;99.90;;;;;;4945652;29;20041;-52
2022/06/02 13:49:28;;;;;;;7.78;2.58;;;26.20;99.90;;;;;;4939806;29;20035;-53
2022/06/02 13:52:08;;;;;;;5.35;1.48;;;26.20;99.90;;;;;;4986167;28;20474;-54
2022/06/02 13:57:51;;;;;;;5.30;1.40;;;26.30;99.90;;;;;;4991377;28;20509;-53
2022/06/02 14:00:51;;;;;;;4.60;1.42;;;26.40;99.90;;;;;;4993211;28;20054;-53
2022/06/02 14:03:17;;;;;;;6.97;1.40;;;26.40;99.90;;;;;;4992134;28;20030;-53
2022/06/02 14:05:43;;;;;;;5.28;1.45;;;26.40;99.90;;;;;;4983008;28;20929;-52
2022/06/02 14:08:23;;;;;;;7.93;2.08;;;26.50;99.90;;;;;;4989652;28;20104;-51
2022/06/02 14:10:56;;;;;;;5.55;1.60;;;26.50;99.90;;;;;;4994982;28;20445;-53
2022/06/02 14:14:00;;;;;;;3.78;1.73;;;26.60;99.90;;;;;;4997523;28;20019;-51
2022/06/02 14:16:54;;;;;;;9.85;2.00;;;26.50;99.90;;;;;;4996026;28;20042;-53
2022/06/02 14:19:35;;;;;;;8.63;1.83;;;26.40;99.90;;;;;;4995998;28;20025;-51
2022/06/02 14:22:32;;;;;;;5.28;1.95;;;26.40;99.90;;;;;;4991367;28;20102;-54
2022/06/02 14:25:06;;;;;;;;;;;26.30;99.90;;;;;;4989135;28;20533;-52
2022/06/02 14:28:06;;;;;;;5.05;1.35;;;26.20;99.90;;;;;;4993726;28;19912;-53
2022/06/02 14:30:42;;;;;;;5.03;1.27;;;26.20;99.90;;;;;;4996447;28;20021;-55
2022/06/02 14:33:16;;;;;;;4.85;1.48;;;26.20;99.90;;;;;;5003972;28;20061;-53
2022/06/02 14:36:23;;;;;;;3.53;1.33;;;26.10;99.90;;;;;;4992357;28;20583;-54
2022/06/02 14:39:16;;;;;;;3.28;1.30;;;26.20;99.90;;;;;;4943508;28;20121;-54
2022/06/02 14:42:00;;;;;;;11.80;2.03;;;26.20;99.90;;;;;;4994214;28;20029;-52